createdAt,value
2017-04-27T00:00:51.707Z,936.1
2017-04-27T00:01:59.609Z,936.1
2017-04-27T00:03:07.820Z,936.0
2017-04-27T00:04:15.787Z,936.0
2017-04-27T00:05:23.865Z,936.0
2017-04-27T00:06:32.036Z,936.0
2017-04-27T00:07:40.040Z,936.1
2017-04-27T00:08:48.191Z,936.1
2017-04-27T00:09:56.214Z,936.1
2017-04-27T00:11:04.304Z,936.2
2017-04-27T00:12:12.391Z,936.2
2017-04-27T00:13:20.593Z,936.2
2017-04-27T00:14:28.687Z,936.2
2017-04-27T00:15:36.655Z,936.2
2017-04-27T00:16:44.736Z,936.2
2017-04-27T00:17:52.906Z,936.2
2017-04-27T00:19:00.913Z,936.2
2017-04-27T00:20:09.120Z,936.2
2017-04-27T00:21:17.080Z,936.2
2017-04-27T00:22:25.173Z,936.2
2017-04-27T00:23:33.261Z,936.2
2017-04-27T00:24:41.348Z,936.2
2017-04-27T00:25:49.553Z,936.2
2017-04-27T00:26:57.523Z,936.1
2017-04-27T00:28:05.701Z,936.0
2017-04-27T00:29:13.745Z,935.9
2017-04-27T00:30:21.779Z,936.0
2017-04-27T00:31:29.986Z,935.9
2017-04-27T00:32:37.951Z,936.0
2017-04-27T00:33:46.040Z,936.0
2017-04-27T00:34:54.126Z,936.1
2017-04-27T00:36:02.209Z,936.1
2017-04-27T00:37:10.352Z,936.0
2017-04-27T00:38:18.384Z,936.1
2017-04-27T00:39:26.553Z,936.1
2017-04-27T00:40:34.557Z,936.1
2017-04-27T00:41:42.646Z,936.1
2017-04-27T00:42:50.855Z,936.1
2017-04-27T00:43:59.022Z,936.1
2017-04-27T00:45:06.962Z,936.1
2017-04-27T00:46:15.003Z,936.0
2017-04-27T00:47:23.091Z,935.9
2017-04-27T00:48:31.287Z,936.0
2017-04-27T00:49:39.255Z,935.9
2017-04-27T00:50:47.348Z,935.9
2017-04-27T00:51:55.436Z,935.8
2017-04-27T00:53:03.520Z,935.8
2017-04-27T00:54:11.875Z,935.9
2017-04-27T00:55:19.835Z,935.9
2017-04-27T00:56:27.781Z,935.9
2017-04-27T00:57:35.864Z,935.9
2017-04-27T00:58:43.951Z,935.9
2017-04-27T00:59:52.090Z,935.9
2017-04-27T01:01:00.240Z,935.9
2017-04-27T01:52:03.982Z,936.2
2017-04-27T01:53:12.073Z,936.3
2017-04-27T01:54:20.192Z,936.3
2017-04-27T01:55:28.248Z,936.3
2017-04-27T01:56:36.389Z,936.3
2017-04-27T01:57:44.422Z,936.3
2017-04-27T01:58:52.508Z,936.3
2017-04-27T02:00:00.638Z,936.3
2017-04-27T02:01:08.675Z,936.3
2017-04-27T02:02:16.882Z,936.3
2017-04-27T02:03:24.851Z,936.2
2017-04-27T02:04:33.135Z,936.2
2017-04-27T02:05:41.025Z,936.2
2017-04-27T02:06:49.230Z,936.2
2017-04-27T02:07:57.250Z,936.2
2017-04-27T02:09:05.280Z,936.2
2017-04-27T02:10:13.373Z,936.1
2017-04-27T02:11:21.458Z,936.1
2017-04-27T02:12:29.545Z,936.1
2017-04-27T02:13:37.750Z,936.1
2017-04-27T02:14:45.869Z,936.1
2017-04-27T02:15:53.929Z,936.1
2017-04-27T02:17:01.888Z,936.1
2017-04-27T02:18:09.972Z,936.0
2017-04-27T02:19:18.115Z,936.0
2017-04-27T02:20:26.141Z,935.9
2017-04-27T02:21:34.227Z,935.9
2017-04-27T02:22:42.432Z,935.9
2017-04-27T02:23:50.392Z,936.0
2017-04-27T02:24:58.603Z,936.0
2017-04-27T02:26:06.641Z,936.0
2017-04-27T02:27:14.650Z,936.0
2017-04-27T02:28:22.737Z,936.1
2017-04-27T02:29:30.826Z,936.2
2017-04-27T02:30:39.218Z,936.2
2017-04-27T02:31:46.991Z,936.1
2017-04-27T02:32:55.080Z,936.0
2017-04-27T02:34:03.172Z,936.0
2017-04-27T02:35:11.253Z,936.1
2017-04-27T02:36:19.468Z,936.1
2017-04-27T02:37:27.497Z,936.1
2017-04-27T02:38:35.579Z,936.1
2017-04-27T02:39:43.610Z,936.1
2017-04-27T02:40:51.698Z,936.0
2017-04-27T02:41:59.899Z,936.0
2017-04-27T02:43:07.861Z,936.0
2017-04-27T02:44:15.947Z,936.0
2017-04-27T02:45:24.030Z,936.0
2017-04-27T02:46:32.112Z,936.0
2017-04-27T02:47:40.326Z,935.9
2017-04-27T02:48:48.296Z,936.0
2017-04-27T02:49:56.371Z,936.0
2017-04-27T02:51:04.455Z,936.0
2017-04-27T02:52:12.545Z,936.0
2017-04-27T02:53:20.687Z,936.0
2017-04-27T02:54:28.771Z,936.1
2017-04-27T02:55:36.795Z,936.1
2017-04-27T02:56:44.889Z,936.1
2017-04-27T02:57:52.976Z,936.1
2017-04-27T02:59:01.376Z,936.1
2017-04-27T03:00:09.151Z,936.1
2017-04-27T03:01:17.237Z,936.2
2017-04-27T03:02:25.320Z,936.2
2017-04-27T03:03:33.409Z,936.2
2017-04-27T03:04:41.625Z,936.2
2017-04-27T03:05:49.577Z,936.2
2017-04-27T03:06:57.661Z,936.3
2017-04-27T03:08:05.752Z,936.3
2017-04-27T03:09:14.033Z,936.4
2017-04-27T03:10:22.049Z,936.3
2017-04-27T03:11:30.016Z,936.3
2017-04-27T03:12:38.102Z,936.2
2017-04-27T03:13:46.186Z,936.2
2017-04-27T03:14:54.270Z,936.2
2017-04-27T03:16:09.363Z,936.3
2017-04-27T03:17:10.439Z,936.3
2017-04-27T03:18:18.522Z,936.3
2017-04-27T03:19:26.607Z,936.3
2017-04-27T03:20:34.861Z,936.3
2017-04-27T03:21:42.777Z,936.3
2017-04-27T03:22:50.859Z,936.3
2017-04-27T03:23:58.946Z,936.3
2017-04-27T03:25:07.025Z,936.3
2017-04-27T03:26:15.231Z,936.2
2017-04-27T03:27:23.199Z,936.2
2017-04-27T03:28:31.284Z,936.1
2017-04-27T03:29:39.370Z,936.1
2017-04-27T03:30:47.541Z,936.1
2017-04-27T03:31:55.660Z,936.1
2017-04-27T03:33:03.625Z,936.2
2017-04-27T03:34:11.706Z,936.2
2017-04-27T03:35:19.793Z,936.2
2017-04-27T03:36:27.877Z,936.2
2017-04-27T03:37:36.012Z,936.2
2017-04-27T03:38:44.044Z,936.2
2017-04-27T03:39:52.130Z,936.2
2017-04-27T03:41:00.213Z,936.2
2017-04-27T03:42:08.421Z,936.2
2017-04-27T03:43:16.504Z,936.1
2017-04-27T03:44:24.472Z,936.2
2017-04-27T03:45:32.553Z,936.2
2017-04-27T03:46:40.635Z,936.2
2017-04-27T03:47:48.725Z,936.2
2017-04-27T03:48:56.865Z,936.3
2017-04-27T03:50:04.893Z,936.3
2017-04-27T03:51:12.977Z,936.3
2017-04-27T03:52:21.085Z,936.3
2017-04-27T03:53:29.172Z,936.4
2017-04-27T03:54:37.350Z,936.4
2017-04-27T03:55:45.323Z,936.4
2017-04-27T03:56:53.618Z,936.4
2017-04-27T03:58:01.815Z,936.4
2017-04-27T03:59:09.598Z,936.4
2017-04-27T04:00:17.739Z,936.4
2017-04-27T04:01:25.773Z,936.4
2017-04-27T04:02:33.847Z,936.4
2017-04-27T04:03:41.973Z,936.5
2017-04-27T04:04:50.022Z,936.5
2017-04-27T04:05:58.226Z,936.5
2017-04-27T04:07:06.197Z,936.5
2017-04-27T04:08:14.357Z,936.5
2017-04-27T04:09:22.366Z,936.5
2017-04-27T04:10:30.476Z,936.6
2017-04-27T04:11:40.601Z,936.6
2017-04-27T04:12:46.616Z,936.6
2017-04-27T04:13:54.878Z,936.5
2017-04-27T04:15:02.865Z,936.6
2017-04-27T04:16:10.871Z,936.6
2017-04-27T04:17:19.074Z,936.6
2017-04-27T04:18:27.042Z,936.6
2017-04-27T04:19:35.121Z,936.6
2017-04-27T04:20:43.209Z,936.5
2017-04-27T04:21:51.287Z,936.5
2017-04-27T04:22:59.497Z,936.5
2017-04-27T04:24:07.458Z,936.5
2017-04-27T04:25:16.123Z,936.5
2017-04-27T04:26:23.635Z,936.5
2017-04-27T04:27:31.721Z,936.6
2017-04-27T04:28:39.861Z,936.6
2017-04-27T04:29:47.937Z,936.6
2017-04-27T04:30:56.010Z,936.6
2017-04-27T04:32:04.058Z,936.5
2017-04-27T04:33:12.139Z,936.5
2017-04-27T04:34:20.346Z,936.6
2017-04-27T04:35:28.310Z,936.5
2017-04-27T04:36:36.393Z,936.5
2017-04-27T04:37:44.477Z,936.6
2017-04-27T04:38:52.565Z,936.6
2017-04-27T04:40:00.827Z,936.5
2017-04-27T04:41:08.729Z,936.5
2017-04-27T04:42:16.824Z,936.5
2017-04-27T04:43:24.945Z,936.4
2017-04-27T04:44:32.996Z,936.4
2017-04-27T04:45:41.201Z,936.4
2017-04-27T04:46:49.169Z,936.4
2017-04-27T04:47:57.249Z,936.5
2017-04-27T04:49:05.335Z,936.4
2017-04-27T04:50:13.423Z,936.4
2017-04-27T04:51:21.728Z,936.4
2017-04-27T04:52:29.590Z,936.4
2017-04-27T04:53:37.672Z,936.5
2017-04-27T04:54:45.762Z,936.5
2017-04-27T04:55:53.848Z,936.5
2017-04-27T04:57:02.075Z,936.5
2017-04-27T04:58:10.213Z,936.6
2017-04-27T04:59:18.104Z,936.6
2017-04-27T05:00:26.187Z,936.6
2017-04-27T05:01:34.394Z,936.6
2017-04-27T05:02:42.481Z,936.6
2017-04-27T05:03:50.447Z,936.7
2017-04-27T05:04:58.527Z,936.6
2017-04-27T05:06:06.616Z,936.6
2017-04-27T05:07:15.116Z,936.7
2017-04-27T05:08:22.849Z,936.7
2017-04-27T05:09:30.882Z,936.7
2017-04-27T05:10:39.477Z,936.7
2017-04-27T05:11:47.046Z,936.7
2017-04-27T05:12:55.200Z,936.7
2017-04-27T05:14:03.341Z,936.8
2017-04-27T05:15:11.303Z,936.8
2017-04-27T05:16:19.385Z,936.9
2017-04-27T05:17:27.595Z,936.8
2017-04-27T05:18:35.564Z,936.8
2017-04-27T05:19:43.741Z,936.7
2017-04-27T05:20:51.729Z,936.8
2017-04-27T05:21:59.810Z,936.8
2017-04-27T05:23:07.901Z,936.9
2017-04-27T05:24:16.158Z,936.9
2017-04-27T05:25:24.196Z,937.0
2017-04-27T05:26:32.170Z,936.9
2017-04-27T05:27:40.248Z,936.9
2017-04-27T05:28:48.331Z,936.9
2017-04-27T05:29:56.418Z,936.9
2017-04-27T05:31:04.592Z,936.9
2017-04-27T05:32:12.586Z,936.9
2017-04-27T05:33:21.308Z,936.9
2017-04-27T05:34:28.935Z,936.9
2017-04-27T05:35:37.014Z,936.9
2017-04-27T05:36:45.172Z,937.0
2017-04-27T05:37:53.013Z,937.0
2017-04-27T05:39:01.096Z,937.0
2017-04-27T05:40:09.179Z,937.0
2017-04-27T05:41:17.270Z,937.0
2017-04-27T05:42:25.411Z,937.0
2017-04-27T05:43:33.438Z,937.0
2017-04-27T05:44:41.522Z,937.1
2017-04-27T05:45:49.783Z,937.1
2017-04-27T05:46:57.697Z,937.1
2017-04-27T05:48:05.906Z,937.0
2017-04-27T05:49:13.931Z,937.1
2017-04-27T05:50:21.961Z,937.1
2017-04-27T05:51:30.043Z,937.2
2017-04-27T05:52:38.129Z,937.2
2017-04-27T05:53:46.338Z,937.3
2017-04-27T05:54:54.302Z,937.3
2017-04-27T05:56:02.498Z,937.3
2017-04-27T05:57:10.601Z,937.2
2017-04-27T05:58:18.561Z,937.2
2017-04-27T05:59:26.703Z,937.2
2017-04-27T06:00:34.733Z,937.3
2017-04-27T06:01:42.821Z,937.3
2017-04-27T06:02:50.958Z,937.3
2017-04-27T06:03:58.989Z,937.2
2017-04-27T06:05:07.200Z,937.1
2017-04-27T06:06:15.161Z,937.1
2017-04-27T06:07:23.248Z,937.1
2017-04-27T06:08:31.330Z,937.1
2017-04-27T06:09:39.418Z,937.1
2017-04-27T06:10:47.752Z,937.1
2017-04-27T06:11:55.759Z,937.1
2017-04-27T06:13:03.676Z,937.1
2017-04-27T06:14:11.760Z,937.1
2017-04-27T06:15:19.841Z,937.0
2017-04-27T06:16:28.050Z,937.1
2017-04-27T06:17:36.012Z,937.1
2017-04-27T06:18:44.105Z,937.1
2017-04-27T06:19:52.185Z,937.1
2017-04-27T06:21:00.331Z,937.1
2017-04-27T06:22:08.612Z,937.2
2017-04-27T06:23:16.546Z,937.2
2017-04-27T06:24:24.534Z,937.2
2017-04-27T06:25:32.622Z,937.3
2017-04-27T06:26:40.703Z,937.3
2017-04-27T06:27:48.916Z,937.3
2017-04-27T06:28:56.878Z,937.3
2017-04-27T06:30:04.968Z,937.3
2017-04-27T06:31:13.057Z,937.4
2017-04-27T06:32:21.140Z,937.3
2017-04-27T06:33:29.518Z,937.3
2017-04-27T06:34:37.312Z,937.3
2017-04-27T06:35:45.393Z,937.2
2017-04-27T06:36:53.603Z,937.2
2017-04-27T06:38:01.565Z,937.2
2017-04-27T06:39:09.703Z,937.2
2017-04-27T06:40:17.738Z,937.1
2017-04-27T06:41:26.518Z,937.1
2017-04-27T06:42:34.132Z,937.2
2017-04-27T06:43:41.994Z,937.2
2017-04-27T06:44:50.554Z,937.2
2017-04-27T06:45:58.169Z,937.2
2017-04-27T06:47:06.349Z,937.1
2017-04-27T06:48:14.339Z,937.1
2017-04-27T06:49:22.423Z,937.1
2017-04-27T06:50:30.589Z,937.0
2017-04-27T06:51:38.589Z,937.0
2017-04-27T06:52:46.801Z,937.0
2017-04-27T06:53:54.766Z,937.0
2017-04-27T06:55:03.004Z,937.1
2017-04-27T06:56:11.187Z,937.2
2017-04-27T06:57:19.022Z,937.2
2017-04-27T06:58:27.627Z,937.3
2017-04-27T06:59:35.192Z,937.2
2017-04-27T07:00:43.289Z,937.2
2017-04-27T07:01:52.114Z,937.1
2017-04-27T07:02:59.503Z,937.0
2017-04-27T07:04:07.550Z,937.1
2017-04-27T07:05:15.633Z,937.2
2017-04-27T07:06:23.834Z,937.3
2017-04-27T07:07:31.856Z,937.3
2017-04-27T07:08:40.009Z,937.2
2017-04-27T07:09:47.979Z,937.2
2017-04-27T07:10:56.066Z,937.2
2017-04-27T07:12:04.157Z,937.2
2017-04-27T07:13:12.492Z,937.2
2017-04-27T07:14:20.323Z,937.3
2017-04-27T07:15:28.410Z,937.3
2017-04-27T07:16:36.605Z,937.3
2017-04-27T07:17:44.675Z,937.2
2017-04-27T07:18:52.790Z,937.2
2017-04-27T07:20:00.753Z,937.2
2017-04-27T07:21:08.838Z,937.3
2017-04-27T07:22:16.979Z,937.2
2017-04-27T07:23:25.012Z,937.2
2017-04-27T07:24:33.350Z,937.2
2017-04-27T07:25:41.184Z,937.2
2017-04-27T07:26:49.269Z,937.2
2017-04-27T07:27:57.363Z,937.3
2017-04-27T07:29:05.451Z,937.3
2017-04-27T07:30:13.592Z,937.3
2017-04-27T07:31:21.619Z,937.3
2017-04-27T07:32:29.706Z,937.4
2017-04-27T07:33:37.792Z,937.5
2017-04-27T07:34:45.872Z,937.5
2017-04-27T07:35:54.211Z,937.5
2017-04-27T07:37:02.053Z,937.5
2017-04-27T07:38:10.165Z,937.5
2017-04-27T07:39:18.232Z,937.6
2017-04-27T07:40:26.439Z,937.6
2017-04-27T07:41:34.450Z,937.5
2017-04-27T07:42:42.545Z,937.5
2017-04-27T07:43:50.712Z,937.5
2017-04-27T07:44:58.651Z,937.5
2017-04-27T07:46:06.735Z,937.5
2017-04-27T07:47:15.072Z,937.5
2017-04-27T07:48:22.909Z,937.5
2017-04-27T07:49:31.032Z,937.5
2017-04-27T07:50:39.077Z,937.5
2017-04-27T07:51:47.169Z,937.6
2017-04-27T07:52:55.373Z,937.6
2017-04-27T07:54:03.334Z,937.6
2017-04-27T07:55:11.426Z,937.6
2017-04-27T07:56:19.574Z,937.6
2017-04-27T07:57:27.598Z,937.6
2017-04-27T07:58:35.800Z,937.6
2017-04-27T07:59:43.819Z,937.6
2017-04-27T08:00:51.900Z,937.6
2017-04-27T08:01:59.937Z,937.6
2017-04-27T08:03:08.029Z,937.6
2017-04-27T08:04:16.169Z,937.6
2017-04-27T08:05:24.198Z,937.6
2017-04-27T08:06:32.279Z,937.6
2017-04-27T08:07:40.372Z,937.6
2017-04-27T08:08:48.454Z,937.7
2017-04-27T08:09:56.785Z,937.7
2017-04-27T08:11:04.627Z,937.7
2017-04-27T08:12:12.773Z,937.6
2017-04-27T08:13:20.802Z,937.6
2017-04-27T08:14:28.885Z,937.6
2017-04-27T08:15:37.038Z,937.6
2017-04-27T08:16:45.122Z,937.7
2017-04-27T08:17:53.153Z,937.7
2017-04-27T08:19:01.246Z,937.7
2017-04-27T08:20:09.376Z,937.7
2017-04-27T08:21:18.921Z,937.7
2017-04-27T08:22:25.630Z,937.6
2017-04-27T08:23:33.588Z,937.7
2017-04-27T08:24:42.361Z,937.7
2017-04-27T08:25:49.754Z,937.7
2017-04-27T08:26:57.965Z,937.7
2017-04-27T08:28:06.051Z,937.7
2017-04-27T08:29:14.022Z,937.8
2017-04-27T08:30:22.098Z,937.8
2017-04-27T08:31:30.187Z,937.8
2017-04-27T08:32:38.331Z,937.8
2017-04-27T08:33:46.362Z,937.8
2017-04-27T08:34:54.454Z,937.8
2017-04-27T08:36:02.543Z,937.7
2017-04-27T08:37:10.624Z,937.8
2017-04-27T08:38:19.027Z,937.8
2017-04-27T08:39:26.802Z,937.7
2017-04-27T08:40:34.890Z,937.7
2017-04-27T08:41:42.973Z,937.7
2017-04-27T08:42:51.075Z,937.7
2017-04-27T08:43:59.272Z,937.8
2017-04-27T08:45:07.234Z,937.8
2017-04-27T08:46:15.323Z,937.8
2017-04-27T08:47:23.413Z,937.8
2017-04-27T08:48:31.634Z,937.7
2017-04-27T08:49:39.702Z,937.7
2017-04-27T08:50:47.671Z,937.6
2017-04-27T08:51:55.762Z,937.6
2017-04-27T08:53:03.842Z,937.6
2017-04-27T08:54:12.186Z,937.7
2017-04-27T08:55:20.375Z,937.8
2017-04-27T08:56:28.105Z,937.9
2017-04-27T08:57:36.187Z,937.9
2017-04-27T08:58:44.294Z,938.0
2017-04-27T08:59:52.532Z,937.9
2017-04-27T09:01:00.774Z,938.0
2017-04-27T09:02:08.565Z,937.9
2017-04-27T09:03:16.624Z,937.9
2017-04-27T09:04:24.712Z,937.9
2017-04-27T09:05:32.796Z,937.9
2017-04-27T09:06:41.001Z,937.9
2017-04-27T09:07:49.492Z,937.9
2017-04-27T09:08:57.178Z,937.8
2017-04-27T09:10:05.844Z,937.7
2017-04-27T09:11:13.754Z,937.7
2017-04-27T09:12:23.199Z,937.9
2017-04-27T09:13:29.947Z,937.9
2017-04-27T09:14:37.490Z,938.0
2017-04-27T09:15:47.080Z,938.0
2017-04-27T09:16:53.721Z,938.0
2017-04-27T09:18:03.361Z,938.0
2017-04-27T09:19:09.985Z,938.0
2017-04-27T09:20:18.099Z,937.9
2017-04-27T09:21:26.200Z,937.9
2017-04-27T09:22:34.102Z,937.9
2017-04-27T09:23:42.293Z,937.9
2017-04-27T09:24:50.298Z,937.9
2017-04-27T09:25:58.429Z,937.9
2017-04-27T09:27:06.556Z,937.9
2017-04-27T09:28:14.522Z,937.9
2017-04-27T09:29:22.662Z,937.9
2017-04-27T09:30:31.354Z,938.0
2017-04-27T09:31:41.044Z,938.0
2017-04-27T09:32:46.872Z,938.0
2017-04-27T09:33:54.968Z,938.0
2017-04-27T09:35:03.214Z,938.0
2017-04-27T09:36:11.209Z,938.0
2017-04-27T09:37:19.287Z,938.0
2017-04-27T09:38:27.334Z,937.9
2017-04-27T09:39:35.389Z,937.9
2017-04-27T09:40:44.309Z,937.8
2017-04-27T09:41:52.016Z,937.9
2017-04-27T09:43:00.338Z,937.9
2017-04-27T09:44:08.411Z,938.0
2017-04-27T09:45:16.334Z,937.9
2017-04-27T09:46:24.238Z,937.9
2017-04-27T09:47:32.049Z,937.9
2017-04-27T09:48:40.468Z,938.0
2017-04-27T09:49:48.166Z,938.0
2017-04-27T09:50:56.253Z,938.0
2017-04-27T09:52:05.930Z,938.0
2017-04-27T09:53:12.475Z,938.0
2017-04-27T09:54:21.144Z,938.0
2017-04-27T09:55:28.596Z,938.0
2017-04-27T09:56:36.678Z,938.0
2017-04-27T09:57:45.820Z,938.1
2017-04-27T09:58:53.410Z,938.0
2017-04-27T10:00:01.058Z,938.1
2017-04-27T10:01:09.493Z,938.1
2017-04-27T10:02:17.496Z,938.0
2017-04-27T10:03:27.287Z,938.0
2017-04-27T10:04:33.499Z,938.0
2017-04-27T10:05:41.898Z,938.0
2017-04-27T10:06:49.661Z,938.0
2017-04-27T10:07:57.872Z,938.0
2017-04-27T10:09:05.912Z,938.0
2017-04-27T10:10:14.412Z,938.0
2017-04-27T10:11:22.298Z,938.0
2017-04-27T10:12:30.283Z,938.0
2017-04-27T10:13:38.489Z,937.9
2017-04-27T10:14:46.949Z,937.9
2017-04-27T10:15:54.147Z,938.0
2017-04-27T10:17:02.238Z,938.0
2017-04-27T10:18:10.325Z,938.0
2017-04-27T10:19:21.576Z,938.0
2017-04-27T10:20:26.654Z,938.1
2017-04-27T10:21:34.731Z,938.1
2017-04-27T10:22:42.995Z,938.1
2017-04-27T10:23:50.758Z,938.1
2017-04-27T10:24:59.201Z,938.2
2017-04-27T10:26:07.053Z,938.2
2017-04-27T10:27:15.019Z,938.2
2017-04-27T10:28:23.104Z,938.2
2017-04-27T10:29:31.194Z,938.1
2017-04-27T10:30:39.325Z,938.2
2017-04-27T10:31:47.486Z,938.1
2017-04-27T10:32:55.451Z,938.1
2017-04-27T10:34:03.586Z,938.1
2017-04-27T10:35:11.676Z,938.1
2017-04-27T10:36:19.704Z,938.1
2017-04-27T10:37:27.918Z,938.1
2017-04-27T10:38:35.881Z,938.1
2017-04-27T10:39:43.967Z,938.1
2017-04-27T10:40:52.196Z,938.1
2017-04-27T10:42:00.173Z,938.1
2017-04-27T10:43:08.352Z,938.1
2017-04-27T10:44:16.316Z,938.1
2017-04-27T10:45:24.578Z,938.1
2017-04-27T10:46:32.489Z,938.0
2017-04-27T10:47:40.569Z,938.0
2017-04-27T10:48:48.780Z,938.0
2017-04-27T10:49:56.749Z,938.0
2017-04-27T10:51:04.952Z,938.0
2017-04-27T10:52:13.034Z,938.0
2017-04-27T10:53:21.008Z,938.0
2017-04-27T10:54:29.149Z,938.0
2017-04-27T10:55:37.176Z,938.0
2017-04-27T10:56:45.266Z,938.0
2017-04-27T10:57:53.351Z,938.0
2017-04-27T10:59:01.435Z,937.9
2017-04-27T11:00:09.577Z,937.9
2017-04-27T11:01:17.607Z,937.8
2017-04-27T11:02:25.754Z,937.8
2017-04-27T11:03:33.819Z,937.8
2017-04-27T11:04:41.871Z,937.8
2017-04-27T11:05:50.078Z,937.8
2017-04-27T11:06:58.098Z,937.8
2017-04-27T11:08:06.320Z,937.8
2017-04-27T11:09:14.217Z,937.8
2017-04-27T11:10:22.303Z,937.9
2017-04-27T11:11:30.442Z,937.9
2017-04-27T11:12:38.482Z,937.9
2017-04-27T11:13:46.569Z,937.8
2017-04-27T11:14:54.649Z,937.8
2017-04-27T11:16:02.737Z,937.8
2017-04-27T11:17:10.953Z,937.8
2017-04-27T11:18:19.040Z,937.8
2017-04-27T11:19:27.599Z,937.9
2017-04-27T11:20:35.084Z,937.9
2017-04-27T11:21:43.169Z,937.9
2017-04-27T11:22:51.372Z,937.9
2017-04-27T11:23:59.343Z,937.9
2017-04-27T11:25:07.428Z,938.0
2017-04-27T11:26:15.514Z,938.0
2017-04-27T11:27:23.599Z,937.9
2017-04-27T11:28:31.811Z,937.8
2017-04-27T11:29:39.828Z,937.8
2017-04-27T11:30:47.855Z,937.9
2017-04-27T11:31:55.948Z,937.9
2017-04-27T11:33:04.038Z,937.9
2017-04-27T11:34:12.433Z,937.9
2017-04-27T11:35:20.202Z,937.9
2017-04-27T11:36:28.294Z,937.9
2017-04-27T11:37:36.376Z,937.9
2017-04-27T11:38:46.442Z,938.0
2017-04-27T11:39:52.672Z,938.0
2017-04-27T11:41:00.636Z,938.0
2017-04-27T11:42:08.719Z,938.0
2017-04-27T11:43:16.806Z,938.0
2017-04-27T11:44:24.890Z,938.0
2017-04-27T11:45:33.102Z,938.0
2017-04-27T11:46:41.146Z,938.0
2017-04-27T11:47:49.159Z,938.0
2017-04-27T11:48:57.243Z,938.1
2017-04-27T11:50:05.326Z,938.0
2017-04-27T11:51:13.536Z,938.0
2017-04-27T11:52:21.500Z,938.0
2017-04-27T11:53:29.584Z,938.0
2017-04-27T11:54:37.721Z,938.1
2017-04-27T11:55:45.763Z,938.0
2017-04-27T11:56:53.970Z,938.0
2017-04-27T11:58:01.938Z,938.1
2017-04-27T11:59:10.019Z,938.1
2017-04-27T12:00:18.106Z,938.1
2017-04-27T12:01:26.231Z,938.1
2017-04-27T12:02:34.409Z,938.1
2017-04-27T12:03:42.366Z,938.1
2017-04-27T12:04:50.450Z,938.1
2017-04-27T12:05:58.539Z,938.1
2017-04-27T12:07:06.621Z,938.1
2017-04-27T12:08:14.773Z,938.1
2017-04-27T12:09:22.803Z,938.1
2017-04-27T12:10:31.008Z,938.1
2017-04-27T12:11:38.974Z,938.1
2017-04-27T12:12:47.169Z,938.0
2017-04-27T12:13:55.203Z,938.0
2017-04-27T12:15:03.235Z,938.0
2017-04-27T12:16:11.323Z,938.0
2017-04-27T12:17:19.409Z,938.1
2017-04-27T12:18:27.492Z,938.1
2017-04-27T12:19:35.700Z,938.1
2017-04-27T12:20:43.667Z,938.0
2017-04-27T12:21:51.749Z,938.1
2017-04-27T12:22:59.925Z,938.0
2017-04-27T12:24:08.011Z,938.0
2017-04-27T12:25:16.124Z,938.1
2017-04-27T12:26:24.212Z,938.0
2017-04-27T12:27:32.177Z,938.0
2017-04-27T12:28:40.267Z,938.0
2017-04-27T12:29:48.352Z,938.0
2017-04-27T12:30:58.466Z,938.0
2017-04-27T12:32:04.525Z,938.0
2017-04-27T12:33:12.611Z,938.0
2017-04-27T12:34:20.744Z,938.0
2017-04-27T12:35:28.782Z,938.0
2017-04-27T12:36:36.983Z,938.0
2017-04-27T12:37:44.948Z,938.0
2017-04-27T12:38:53.216Z,938.1
2017-04-27T12:40:01.119Z,938.1
2017-04-27T12:41:09.217Z,938.1
2017-04-27T12:42:17.416Z,938.1
2017-04-27T12:43:25.387Z,938.1
2017-04-27T12:44:33.473Z,938.1
2017-04-27T12:45:41.555Z,938.1
2017-04-27T12:46:49.644Z,938.1
2017-04-27T12:47:57.789Z,938.1
2017-04-27T12:49:05.819Z,938.1
2017-04-27T12:50:13.999Z,938.1
2017-04-27T12:51:21.989Z,938.0
2017-04-27T12:52:30.075Z,938.1
2017-04-27T12:53:38.277Z,938.0
2017-04-27T12:54:46.246Z,938.0
2017-04-27T12:55:54.334Z,938.0
2017-04-27T12:57:02.422Z,938.0
2017-04-27T12:58:10.629Z,938.0
2017-04-27T12:59:18.653Z,937.9
2017-04-27T13:00:26.787Z,937.9
2017-04-27T13:01:34.864Z,937.9
2017-04-27T13:02:42.859Z,937.9
2017-04-27T13:03:50.942Z,937.9
2017-04-27T13:04:59.184Z,938.0
2017-04-27T13:06:07.116Z,938.0
2017-04-27T13:07:15.394Z,937.9
2017-04-27T13:08:23.295Z,937.9
2017-04-27T13:09:31.371Z,937.9
2017-04-27T13:10:39.586Z,937.9
2017-04-27T13:11:47.638Z,937.9
2017-04-27T13:12:55.633Z,937.9
2017-04-27T13:14:03.844Z,937.8
2017-04-27T13:15:11.812Z,937.8
2017-04-27T13:16:20.017Z,937.9
2017-04-27T13:17:27.984Z,937.9
2017-04-27T13:18:36.070Z,938.0
2017-04-27T13:19:44.159Z,938.0
2017-04-27T13:20:52.240Z,938.1
2017-04-27T13:22:00.574Z,938.1
2017-04-27T13:23:08.522Z,938.1
2017-04-27T13:24:16.499Z,938.0
2017-04-27T13:25:24.585Z,938.0
2017-04-27T13:26:32.673Z,937.9
2017-04-27T13:27:40.882Z,937.9
2017-04-27T13:28:48.839Z,938.0
2017-04-27T13:29:57.054Z,938.0
2017-04-27T13:31:05.018Z,938.1
2017-04-27T13:32:13.105Z,938.1
2017-04-27T13:33:21.309Z,938.0
2017-04-27T13:34:29.276Z,938.0
2017-04-27T13:35:37.368Z,938.0
2017-04-27T13:36:45.446Z,938.0
2017-04-27T13:37:53.534Z,938.0
2017-04-27T13:39:01.737Z,938.0
2017-04-27T13:40:09.700Z,937.9
2017-04-27T13:41:17.790Z,938.0
2017-04-27T13:42:25.886Z,938.0
2017-04-27T13:43:34.039Z,938.0
2017-04-27T13:44:42.214Z,938.0
2017-04-27T13:45:50.266Z,938.0
2017-04-27T13:46:58.233Z,938.0
2017-04-27T13:48:06.502Z,937.9
2017-04-27T13:49:14.570Z,937.9
2017-04-27T13:50:22.948Z,938.0
2017-04-27T13:51:30.583Z,938.0
2017-04-27T13:52:38.674Z,937.9
2017-04-27T13:53:46.750Z,938.0
2017-04-27T13:54:54.842Z,937.9
2017-04-27T13:56:03.046Z,938.0
2017-04-27T13:57:11.012Z,937.9
2017-04-27T13:58:19.106Z,937.9
2017-04-27T13:59:27.213Z,937.9
2017-04-27T14:00:35.275Z,937.9
2017-04-27T14:01:43.421Z,937.8
2017-04-27T14:02:51.454Z,937.8
2017-04-27T14:03:59.536Z,937.8
2017-04-27T14:05:07.658Z,937.8
2017-04-27T14:06:15.713Z,937.7
2017-04-27T14:07:23.919Z,937.8
2017-04-27T14:08:31.882Z,937.8
2017-04-27T14:09:39.979Z,937.8
2017-04-27T14:10:48.120Z,937.8
2017-04-27T14:11:56.139Z,937.8
2017-04-27T14:13:04.353Z,937.8
2017-04-27T14:14:12.318Z,937.8
2017-04-27T14:15:20.399Z,937.8
2017-04-27T14:16:28.495Z,937.8
2017-04-27T14:17:36.642Z,937.8
2017-04-27T14:18:44.819Z,937.8
2017-04-27T14:19:52.760Z,937.8
2017-04-27T14:21:00.958Z,937.8
2017-04-27T14:22:09.029Z,937.8
2017-04-27T14:23:17.016Z,937.7
2017-04-27T14:24:25.158Z,937.7
2017-04-27T14:25:33.190Z,937.7
2017-04-27T14:26:41.279Z,937.7
2017-04-27T14:27:49.361Z,937.7
2017-04-27T14:28:57.452Z,937.7
2017-04-27T14:30:05.665Z,937.8
2017-04-27T14:31:13.630Z,937.7
2017-04-27T14:32:21.831Z,937.7
2017-04-27T14:33:29.860Z,937.6
2017-04-27T14:34:37.895Z,937.6
2017-04-27T14:35:46.241Z,937.6
2017-04-27T14:36:54.553Z,937.6
2017-04-27T14:38:02.161Z,937.7
2017-04-27T14:39:10.246Z,937.7
2017-04-27T14:40:18.331Z,937.7
2017-04-27T14:41:26.479Z,937.6
2017-04-27T14:42:34.577Z,937.6
2017-04-27T14:43:42.656Z,937.6
2017-04-27T14:44:50.684Z,937.6
2017-04-27T14:45:58.769Z,937.6
2017-04-27T14:47:06.920Z,937.7
2017-04-27T14:48:14.937Z,937.7
2017-04-27T14:49:23.147Z,937.7
2017-04-27T14:50:31.112Z,937.7
2017-04-27T14:51:39.204Z,937.8
2017-04-27T14:52:53.404Z,937.7
2017-04-27T14:53:55.389Z,937.8
2017-04-27T14:55:03.474Z,937.7
2017-04-27T14:56:11.554Z,937.8
2017-04-27T14:57:19.642Z,937.8
2017-04-27T14:58:28.048Z,937.8
2017-04-27T14:59:35.813Z,937.8
2017-04-27T15:00:43.906Z,937.7
2017-04-27T15:01:51.987Z,937.7
2017-04-27T15:03:00.072Z,937.7
2017-04-27T15:04:08.295Z,937.7
2017-04-27T15:05:16.307Z,937.6
2017-04-27T15:06:24.335Z,937.7
2017-04-27T15:07:32.419Z,937.7
2017-04-27T15:08:40.614Z,937.6
2017-04-27T15:09:48.803Z,937.6
2017-04-27T15:10:56.677Z,937.6
2017-04-27T15:12:04.802Z,937.6
2017-04-27T15:13:12.848Z,937.6
2017-04-27T15:14:20.931Z,937.7
2017-04-27T15:15:29.074Z,937.6
2017-04-27T15:16:37.104Z,937.6
2017-04-27T15:17:45.217Z,937.6
2017-04-27T15:18:53.322Z,937.6
2017-04-27T15:20:01.363Z,937.6
2017-04-27T15:21:09.572Z,937.6
2017-04-27T15:22:17.537Z,937.6
2017-04-27T15:23:25.620Z,937.6
2017-04-27T15:24:33.707Z,937.6
2017-04-27T15:25:41.790Z,937.6
2017-04-27T15:26:49.997Z,937.5